createdAt,value
2017-08-18T00:02:18.259Z,101008.45
2017-08-18T00:04:45.840Z,101006.34
2017-08-18T00:07:13.465Z,101015.59
2017-08-18T00:09:41.118Z,101013.67
2017-08-18T00:12:08.738Z,101004.38
2017-08-18T00:14:36.364Z,101004.41
2017-08-18T00:17:03.990Z,100998.21
2017-08-18T00:19:31.594Z,100987.75
2017-08-18T00:21:59.243Z,100973.59
2017-08-18T00:24:26.862Z,100978.21
2017-08-18T00:26:54.458Z,100977.02
2017-08-18T00:29:22.195Z,100972.14
2017-08-18T00:31:49.792Z,100967.03
2017-08-18T00:34:17.423Z,100960.14
2017-08-18T00:36:45.010Z,100960.80
2017-08-18T00:39:12.627Z,100953.31
2017-08-18T00:41:40.225Z,100957.30
2017-08-18T00:44:07.847Z,100955.23
2017-08-18T00:46:35.440Z,100954.58
2017-08-18T00:49:03.190Z,100956.54
2017-08-18T00:51:30.770Z,100967.47
2017-08-18T00:53:58.366Z,100970.19
2017-08-18T00:56:26.002Z,100967.03
2017-08-18T00:58:53.607Z,100959.34
2017-08-18T01:01:21.230Z,100954.28
2017-08-18T01:03:48.843Z,100945.42
2017-08-18T01:06:16.463Z,100942.55
2017-08-18T01:08:44.063Z,100943.18
2017-08-18T01:11:11.698Z,100943.91
2017-08-18T01:13:39.293Z,100933.36
2017-08-18T01:16:07.022Z,100935.57
2017-08-18T01:18:34.630Z,100937.75
2017-08-18T01:21:02.256Z,100927.53
2017-08-18T01:23:29.838Z,100918.78
2017-08-18T01:25:57.467Z,100914.96
2017-08-18T01:28:25.062Z,100912.86
2017-08-18T01:30:52.683Z,100919.57
2017-08-18T01:33:20.290Z,100929.28
2017-08-18T01:35:47.891Z,100938.69
2017-08-18T01:38:15.520Z,100938.34
2017-08-18T01:40:43.113Z,100941.81
2017-08-18T01:43:10.758Z,100933.84
2017-08-18T01:45:38.350Z,100929.55
2017-08-18T01:48:05.970Z,100924.75
2017-08-18T01:50:33.571Z,100924.78
2017-08-18T01:53:01.184Z,100932.27
2017-08-18T01:55:28.766Z,100934.42
2017-08-18T01:57:56.470Z,100938.27
2017-08-18T02:00:24.110Z,100938.99
2017-08-18T02:02:51.742Z,100944.59
2017-08-18T02:05:19.351Z,100936.11
2017-08-18T02:07:47.034Z,100936.09
2017-08-18T02:10:14.671Z,100931.33
2017-08-18T02:12:42.306Z,100929.84
2017-08-18T02:15:09.906Z,100926.21
2017-08-18T02:17:37.566Z,100917.77
2017-08-18T02:20:05.163Z,100926.12
2017-08-18T02:22:32.750Z,100922.61
2017-08-18T02:25:00.402Z,100935.23
2017-08-18T02:27:27.989Z,100942.98
2017-08-18T02:29:55.623Z,100948.25
2017-08-18T02:32:23.215Z,100948.09
2017-08-18T02:34:50.850Z,100940.77
2017-08-18T02:37:18.461Z,100943.16
2017-08-18T02:39:46.087Z,100950.87
2017-08-18T02:42:13.682Z,100959.11
2017-08-18T02:44:41.326Z,100975.55
2017-08-18T02:47:08.921Z,100976.66
2017-08-18T02:49:36.542Z,100974.01
2017-08-18T02:52:04.170Z,100973.03
2017-08-18T02:54:31.772Z,100972.48
2017-08-18T02:56:59.396Z,100974.07
2017-08-18T02:59:26.991Z,100962.98
2017-08-18T03:01:54.617Z,100950.75
2017-08-18T03:04:22.219Z,100947.38
2017-08-18T03:06:49.854Z,100947.05
2017-08-18T03:09:17.440Z,100936.46
2017-08-18T03:11:45.075Z,100928.44
2017-08-18T03:14:12.659Z,100926.14
2017-08-18T03:16:40.270Z,100929.63
2017-08-18T03:19:07.949Z,100920.24
2017-08-18T03:21:35.594Z,100907.10
2017-08-18T03:24:03.190Z,100912.79
2017-08-18T03:26:30.863Z,100903.78
2017-08-18T03:28:58.495Z,100906.12
2017-08-18T03:31:26.082Z,100902.21
2017-08-18T03:33:53.695Z,100909.28
2017-08-18T03:36:21.334Z,100910.96
2017-08-18T03:38:48.946Z,100902.84
2017-08-18T03:41:16.531Z,100908.94
2017-08-18T03:43:44.228Z,100923.53
2017-08-18T03:46:11.880Z,100920.88
2017-08-18T03:48:39.510Z,100930.38
2017-08-18T03:51:07.103Z,100931.84
2017-08-18T03:53:34.783Z,100934.30
2017-08-18T03:56:02.387Z,100919.77
2017-08-18T03:58:29.998Z,100926.34
2017-08-18T04:00:57.594Z,100940.94
2017-08-18T04:03:25.221Z,100948.55
2017-08-18T04:05:52.826Z,100937.08
2017-08-18T04:08:20.450Z,100929.25
2017-08-18T04:10:48.059Z,100930.60
2017-08-18T04:13:15.690Z,100929.30
2017-08-18T04:15:43.301Z,100917.90
2017-08-18T04:18:10.938Z,100902.45
2017-08-18T04:20:38.551Z,100900.53
2017-08-18T04:23:06.139Z,100912.43
2017-08-18T04:25:33.823Z,100916.72
2017-08-18T04:28:01.423Z,100926.06
2017-08-18T04:30:29.071Z,100933.70
2017-08-18T04:32:56.667Z,100925.36
2017-08-18T04:35:24.357Z,100927.17
2017-08-18T04:37:51.956Z,100931.94
2017-08-18T04:40:19.579Z,100928.60
2017-08-18T04:42:47.182Z,100922.09
2017-08-18T04:45:14.808Z,100912.06
2017-08-18T04:47:42.414Z,100911.95
2017-08-18T04:50:10.028Z,100909.30
2017-08-18T04:52:37.619Z,100911.67
2017-08-18T04:55:05.276Z,100910.81
2017-08-18T04:57:32.874Z,100911.90
2017-08-18T05:00:00.495Z,100911.39
2017-08-18T05:02:28.115Z,100923.58
2017-08-18T05:04:55.703Z,100932.61
2017-08-18T05:07:23.346Z,100940.84
2017-08-18T05:09:50.987Z,100938.23
2017-08-18T05:12:18.600Z,100922.84
2017-08-18T05:14:46.196Z,100920.34
2017-08-18T05:17:13.834Z,100918.16
2017-08-18T05:19:41.444Z,100912.36
2017-08-18T05:22:09.032Z,100873.61
2017-08-18T05:24:36.677Z,100872.73
2017-08-18T05:27:04.299Z,100871.53
2017-08-18T05:29:31.949Z,100871.22
2017-08-18T05:31:59.549Z,100872.89
2017-08-18T05:34:27.170Z,100876.78
2017-08-18T05:36:54.808Z,100870.64
2017-08-18T05:39:22.443Z,100870.98
2017-08-18T05:41:50.052Z,100875.73
2017-08-18T05:44:17.706Z,100878.50
2017-08-18T05:46:45.306Z,100873.45
2017-08-18T05:49:12.999Z,100873.81
2017-08-18T05:51:40.593Z,100874.69
2017-08-18T05:54:08.219Z,100874.78
2017-08-18T05:56:35.835Z,100874.13
2017-08-18T05:59:03.446Z,100881.73
2017-08-18T06:01:31.076Z,100877.72
2017-08-18T06:03:58.753Z,100870.94
2017-08-18T06:06:26.367Z,100872.02
2017-08-18T06:08:54.490Z,100860.46
2017-08-18T06:11:22.202Z,100860.81
2017-08-18T06:13:49.802Z,100855.41
2017-08-18T06:16:17.434Z,100852.09
2017-08-18T06:18:45.056Z,100849.78
2017-08-18T06:21:12.683Z,100860.65
2017-08-18T06:23:40.283Z,100860.56
2017-08-18T06:26:07.901Z,100861.91
2017-08-18T06:28:35.500Z,100862.73
2017-08-18T06:31:03.117Z,100864.19
2017-08-18T06:33:30.706Z,100862.64
2017-08-18T06:35:58.343Z,100850.36
2017-08-18T06:38:25.940Z,100833.08
2017-08-18T06:40:53.578Z,100846.34
2017-08-18T06:43:21.175Z,100842.81
2017-08-18T06:45:48.883Z,100851.97
2017-08-18T06:48:16.470Z,100858.16
2017-08-18T06:50:44.102Z,100864.77
2017-08-18T06:53:11.716Z,100862.20
2017-08-18T06:55:39.346Z,100869.23
2017-08-18T06:58:06.942Z,100883.03
2017-08-18T07:00:34.588Z,100885.08
2017-08-18T07:03:02.180Z,100892.34
2017-08-18T07:05:29.778Z,100906.66
2017-08-18T07:07:57.405Z,100916.89
2017-08-18T07:10:25.040Z,100921.84
2017-08-18T07:12:52.666Z,100925.34
2017-08-18T07:15:20.303Z,100931.82
2017-08-18T07:17:47.887Z,100937.30
2017-08-18T07:20:15.482Z,100936.31
2017-08-18T07:22:43.115Z,100935.75
2017-08-18T07:25:10.699Z,100934.18
2017-08-18T07:27:38.330Z,100932.24
2017-08-18T07:30:05.934Z,100920.83
2017-08-18T07:32:33.551Z,100916.95
2017-08-18T07:35:01.167Z,100912.58
2017-08-18T07:37:28.795Z,100907.72
2017-08-18T07:39:56.399Z,100912.93
2017-08-18T07:42:24.030Z,100902.09
2017-08-18T07:44:51.635Z,100908.97
2017-08-18T07:47:19.289Z,100915.33
2017-08-18T07:49:46.878Z,100914.98
2017-08-18T07:52:14.503Z,100907.81
2017-08-18T07:54:42.150Z,100916.64
2017-08-18T07:57:09.808Z,100913.93
2017-08-18T07:59:37.411Z,100916.69
2017-08-18T08:02:05.066Z,100906.53
2017-08-18T08:04:32.679Z,100907.63
2017-08-18T08:07:00.352Z,100905.31
2017-08-18T08:09:28.067Z,100899.67
2017-08-18T08:11:55.690Z,100893.11
2017-08-18T08:14:23.286Z,100888.72
2017-08-18T08:16:50.937Z,100894.84
2017-08-18T08:19:18.545Z,100893.58
2017-08-18T08:21:46.222Z,100892.38
2017-08-18T08:24:13.846Z,100891.63
2017-08-18T08:26:41.435Z,100887.34
2017-08-18T08:29:09.066Z,100884.37
2017-08-18T08:31:36.708Z,100887.02
2017-08-18T08:34:04.322Z,100882.94
2017-08-18T08:36:31.941Z,100882.78
2017-08-18T08:38:59.590Z,100872.42
2017-08-18T08:41:27.281Z,100876.88
2017-08-18T08:43:54.916Z,100873.44
2017-08-18T08:46:22.538Z,100858.48
2017-08-18T08:48:50.158Z,100851.28
2017-08-18T08:51:17.762Z,100842.98
2017-08-18T08:53:45.425Z,100837.11
2017-08-18T08:56:13.069Z,100843.30
2017-08-18T08:58:40.715Z,100847.18
2017-08-18T09:01:08.358Z,100837.93
2017-08-18T09:03:35.984Z,100833.48
2017-08-18T09:06:03.572Z,100819.77
2017-08-18T09:08:31.194Z,100820.49
2017-08-18T09:10:58.798Z,100819.77
2017-08-18T09:13:26.410Z,100814.77
2017-08-18T09:15:53.995Z,100825.81
2017-08-18T09:18:21.636Z,100831.08
2017-08-18T09:20:49.235Z,100830.70
2017-08-18T09:23:16.866Z,100835.09
2017-08-18T09:25:44.462Z,100841.02
2017-08-18T09:28:12.079Z,100854.37
2017-08-18T09:30:39.742Z,100859.09
2017-08-18T09:33:07.342Z,100855.94
2017-08-18T09:35:34.990Z,100863.78
2017-08-18T09:38:02.657Z,100855.00
2017-08-18T09:40:30.312Z,100857.22
2017-08-18T09:42:57.918Z,100849.72
2017-08-18T09:45:25.559Z,100849.47
2017-08-18T09:48:04.659Z,100846.80
2017-08-18T09:50:43.914Z,100843.55
2017-08-18T09:53:23.142Z,100838.03
2017-08-18T09:56:02.427Z,100835.48
2017-08-18T09:58:41.744Z,100832.45
2017-08-18T10:01:09.338Z,100830.59
2017-08-18T10:03:36.938Z,100836.13
2017-08-18T10:06:04.574Z,100836.51
2017-08-18T10:08:32.278Z,100833.58
2017-08-18T10:10:59.886Z,100824.29
2017-08-18T10:13:27.496Z,100821.66
2017-08-18T10:15:55.155Z,100811.06
2017-08-18T10:18:22.815Z,100807.69
2017-08-18T10:20:50.442Z,100797.95
2017-08-18T10:23:18.054Z,100793.45
2017-08-18T10:25:45.738Z,100789.56
2017-08-18T10:28:13.337Z,100789.09
2017-08-18T10:30:41.022Z,100790.91
2017-08-18T10:33:08.679Z,100787.58
2017-08-18T10:35:36.321Z,100779.23
2017-08-18T10:38:03.916Z,100779.15
2017-08-18T10:40:31.541Z,100785.49
2017-08-18T10:42:59.142Z,100769.88
2017-08-18T10:45:26.878Z,100767.07
2017-08-18T10:47:54.476Z,100770.53
2017-08-18T10:50:22.114Z,100767.48
2017-08-18T10:52:49.703Z,100777.71
2017-08-18T10:55:17.310Z,100771.80
2017-08-18T10:57:44.943Z,100772.19
2017-08-18T11:00:12.538Z,100769.70
2017-08-18T11:02:40.149Z,100765.70
2017-08-18T11:05:07.761Z,100764.59
2017-08-18T11:07:35.387Z,100764.52
2017-08-18T11:10:02.977Z,100753.76
2017-08-18T11:12:30.631Z,100756.40
2017-08-18T11:14:58.183Z,100756.89
2017-08-18T11:17:25.930Z,100756.48
2017-08-18T11:19:53.537Z,100750.46
2017-08-18T11:22:21.153Z,100750.09
2017-08-18T11:24:48.752Z,100752.02
2017-08-18T11:27:16.390Z,100744.80
2017-08-18T11:29:43.986Z,100749.05
2017-08-18T11:32:11.606Z,100750.58
2017-08-18T11:34:39.202Z,100750.95
2017-08-18T11:37:06.838Z,100752.40
2017-08-18T11:39:34.435Z,100748.73
2017-08-18T11:42:02.175Z,100742.33
2017-08-18T11:44:29.828Z,100735.31
2017-08-18T11:46:57.462Z,100736.76
2017-08-18T11:49:25.062Z,100730.33
2017-08-18T11:51:52.698Z,100736.84
2017-08-18T11:54:20.306Z,100730.17
2017-08-18T11:56:47.926Z,100735.28
2017-08-18T11:59:15.514Z,100729.02
2017-08-18T12:01:43.183Z,100730.00
2017-08-18T12:04:10.774Z,100721.92
2017-08-18T12:06:38.412Z,100721.67
2017-08-18T12:09:06.006Z,100717.84
2017-08-18T12:11:33.634Z,100716.81
2017-08-18T12:14:01.234Z,100717.14
2017-08-18T12:16:28.880Z,100711.86
2017-08-18T12:18:56.462Z,100708.41
2017-08-18T12:21:24.147Z,100693.85
2017-08-18T12:23:51.771Z,100701.61
2017-08-18T12:26:19.359Z,100720.89
2017-08-18T12:28:46.988Z,100740.50
2017-08-18T12:31:14.590Z,100743.47
2017-08-18T12:33:42.221Z,100741.72
2017-08-18T12:36:09.810Z,100720.77
2017-08-18T12:38:37.452Z,100725.32
2017-08-18T12:41:05.052Z,100724.59
2017-08-18T12:43:32.739Z,100729.95
2017-08-18T12:46:00.334Z,100727.16
2017-08-18T12:48:27.977Z,100727.61
2017-08-18T12:50:55.565Z,100726.88
2017-08-18T12:53:23.198Z,100727.66
2017-08-18T12:55:50.781Z,100717.80
2017-08-18T12:58:18.394Z,100722.70
2017-08-18T13:00:46.002Z,100715.23
2017-08-18T13:03:13.640Z,100714.00
2017-08-18T13:05:41.239Z,100715.50
2017-08-18T13:08:08.874Z,100711.86
2017-08-18T13:10:36.491Z,100714.63
2017-08-18T13:13:04.147Z,100715.20
2017-08-18T13:15:31.755Z,100707.69
2017-08-18T13:18:01.114Z,100714.43
2017-08-18T13:20:28.710Z,100706.77
2017-08-18T13:22:56.334Z,100707.63
2017-08-18T13:25:23.931Z,100715.12
2017-08-18T13:27:51.562Z,100716.76
2017-08-18T13:30:19.171Z,100720.80
2017-08-18T13:32:46.791Z,100731.71
2017-08-18T13:35:14.388Z,100729.91
2017-08-18T13:37:42.014Z,100725.04
2017-08-18T13:40:09.649Z,100725.37
2017-08-18T13:42:37.274Z,100721.78
2017-08-18T13:45:04.865Z,100715.31
2017-08-18T13:47:32.510Z,100707.60
2017-08-18T13:50:00.122Z,100712.80
2017-08-18T13:52:27.780Z,100714.20
2017-08-18T13:54:55.408Z,100722.78
2017-08-18T13:57:22.995Z,100713.75
2017-08-18T13:59:50.618Z,100705.27
2017-08-18T14:02:18.234Z,100701.47
2017-08-18T14:04:45.846Z,100705.61
2017-08-18T14:07:13.438Z,100708.95
2017-08-18T14:09:41.031Z,100706.83
2017-08-18T14:12:08.618Z,100707.13
2017-08-18T14:14:36.230Z,100701.52
2017-08-18T14:17:03.830Z,100708.52
2017-08-18T14:19:31.468Z,100710.05
2017-08-18T14:21:59.118Z,100704.52
2017-08-18T14:24:26.734Z,100714.04
2017-08-18T14:26:59.902Z,100708.55
2017-08-18T14:29:27.541Z,100719.02
2017-08-18T14:31:55.231Z,100723.25
2017-08-18T14:34:22.874Z,100724.06
2017-08-18T14:36:50.500Z,100732.45
2017-08-18T14:39:18.097Z,100736.23
2017-08-18T14:41:45.732Z,100731.73
2017-08-18T14:44:13.368Z,100734.70
2017-08-18T14:46:40.959Z,100733.66
2017-08-18T14:49:08.562Z,100733.98
2017-08-18T14:51:36.183Z,100730.53
2017-08-18T14:54:03.779Z,100735.91
2017-08-18T14:56:31.411Z,100734.39
2017-08-18T14:58:59.043Z,100743.16
2017-08-18T15:01:26.672Z,100740.62
2017-08-18T15:03:54.291Z,100741.09
2017-08-18T15:06:21.910Z,100743.51
2017-08-18T15:08:49.504Z,100750.69
2017-08-18T15:11:17.171Z,100745.32
2017-08-18T15:13:44.795Z,100741.64
2017-08-18T15:16:12.435Z,100742.77
2017-08-18T15:18:40.026Z,100729.67
2017-08-18T15:21:07.662Z,100731.02
2017-08-18T15:23:35.302Z,100728.72
2017-08-18T15:26:02.919Z,100726.63
2017-08-18T15:28:30.538Z,100722.39
2017-08-18T15:30:58.145Z,100729.59
2017-08-18T15:33:25.780Z,100727.67
2017-08-18T15:35:53.378Z,100732.77
2017-08-18T15:38:20.991Z,100740.54
2017-08-18T15:40:48.592Z,100731.48
2017-08-18T15:43:16.223Z,100729.11
2017-08-18T15:45:43.858Z,100730.47
2017-08-18T15:48:11.494Z,100728.20
2017-08-18T15:50:39.109Z,100726.39
2017-08-18T15:53:06.758Z,100728.20
2017-08-18T15:55:34.370Z,100725.11
2017-08-18T15:58:02.002Z,100719.27
2017-08-18T16:00:29.658Z,100723.57
2017-08-18T16:02:57.316Z,100716.72
2017-08-18T16:05:24.919Z,100720.06
2017-08-18T16:07:52.566Z,100717.91
2017-08-18T16:10:20.192Z,100726.20
2017-08-18T16:12:47.833Z,100727.02
2017-08-18T16:15:15.434Z,100725.91
2017-08-18T16:17:43.031Z,100727.26
2017-08-18T16:20:10.655Z,100724.08
2017-08-18T16:22:38.351Z,100726.80
2017-08-18T16:25:05.990Z,100735.89
2017-08-18T16:27:33.605Z,100735.91
2017-08-18T16:30:01.237Z,100741.02
2017-08-18T16:32:28.849Z,100742.61
2017-08-18T16:34:56.491Z,100739.57
2017-08-18T16:37:24.088Z,100738.86
2017-08-18T16:39:51.713Z,100738.94
2017-08-18T16:42:19.319Z,100745.95
2017-08-18T16:44:46.974Z,100735.91
2017-08-18T16:47:14.599Z,100727.34
2017-08-18T16:49:42.241Z,100723.02
2017-08-18T16:52:09.839Z,100725.12
2017-08-18T16:54:37.503Z,100734.06
2017-08-18T16:57:05.099Z,100736.78
2017-08-18T16:59:32.699Z,100740.94
2017-08-18T17:02:00.337Z,100736.93
2017-08-18T17:04:27.976Z,100734.61
2017-08-18T17:06:55.597Z,100739.50
2017-08-18T17:09:23.207Z,100748.03
2017-08-18T17:11:50.847Z,100749.09
2017-08-18T17:14:18.469Z,100747.23
2017-08-18T17:16:46.088Z,100741.72
2017-08-18T17:19:13.695Z,100736.06
2017-08-18T17:21:41.326Z,100736.13
2017-08-18T17:24:08.926Z,100726.55
2017-08-18T17:26:36.525Z,100731.41
2017-08-18T17:29:04.152Z,100732.77
2017-08-18T17:31:31.763Z,100733.73
2017-08-18T17:33:59.413Z,100736.84
2017-08-18T17:36:27.056Z,100734.94
2017-08-18T17:38:54.701Z,100739.02
2017-08-18T17:41:22.291Z,100738.36
2017-08-18T17:43:49.913Z,100744.72
2017-08-18T17:46:17.515Z,100745.52
2017-08-18T17:48:45.178Z,100740.95
2017-08-18T17:51:12.764Z,100740.03
2017-08-18T17:53:40.358Z,100739.73
2017-08-18T17:56:07.987Z,100748.34
2017-08-18T17:58:35.622Z,100760.03
2017-08-18T18:01:03.223Z,100756.52
2017-08-18T18:03:30.855Z,100761.91
2017-08-18T18:05:58.505Z,100759.26
2017-08-18T18:08:26.096Z,100762.30
2017-08-18T18:10:53.718Z,100759.08
2017-08-18T18:13:21.366Z,100755.73
2017-08-18T18:15:49.074Z,100757.66
2017-08-18T18:18:16.681Z,100753.73
2017-08-18T18:20:44.319Z,100749.41
2017-08-18T18:23:11.944Z,100747.80
2017-08-18T18:25:39.567Z,100757.70
2017-08-18T18:28:07.163Z,100759.06
2017-08-18T18:30:34.811Z,100754.36
2017-08-18T18:33:02.411Z,100752.56
2017-08-18T18:35:30.079Z,100757.67
2017-08-18T18:37:57.695Z,100764.14
2017-08-18T18:40:25.342Z,100766.77
2017-08-18T18:42:52.947Z,100774.77
2017-08-18T18:45:20.582Z,100780.10
2017-08-18T18:47:48.207Z,100781.59
2017-08-18T18:50:15.855Z,100782.14
2017-08-18T18:52:43.459Z,100790.44
2017-08-18T18:55:11.204Z,100796.75
2017-08-18T18:57:38.815Z,100800.98
2017-08-18T19:00:06.426Z,100797.64
2017-08-18T19:02:34.077Z,100796.19
2017-08-18T19:05:01.721Z,100792.69
2017-08-18T19:07:29.420Z,100791.42
2017-08-18T19:09:57.007Z,100800.22
2017-08-18T19:12:24.973Z,100800.16
2017-08-18T19:14:52.571Z,100810.29
2017-08-18T19:17:20.170Z,100820.66
2017-08-18T19:19:47.875Z,100818.89
2017-08-18T19:22:16.234Z,100835.91
2017-08-18T19:24:43.954Z,100847.97
2017-08-18T19:27:11.559Z,100847.97
2017-08-18T19:29:39.194Z,100854.98
2017-08-18T19:32:06.805Z,100862.08
2017-08-18T19:34:34.425Z,100858.73
2017-08-18T19:37:02.043Z,100865.77
2017-08-18T19:39:29.947Z,100878.27
2017-08-18T19:41:57.558Z,100886.84
2017-08-18T19:44:25.176Z,100890.28
2017-08-18T19:46:52.844Z,100910.66
2017-08-18T19:49:20.518Z,100915.44
2017-08-18T19:51:48.166Z,100903.60
2017-08-18T19:54:15.783Z,100901.80
2017-08-18T19:56:43.411Z,100900.99
2017-08-18T19:59:11.027Z,100896.38
2017-08-18T20:01:38.786Z,100904.34
2017-08-18T20:04:06.389Z,100916.11
2017-08-18T20:06:33.999Z,100915.93
2017-08-18T20:09:01.658Z,100910.56
2017-08-18T20:11:29.266Z,100911.19
2017-08-18T20:13:56.915Z,100908.22
2017-08-18T20:16:24.502Z,100909.00
2017-08-18T20:18:52.147Z,100906.56
2017-08-18T20:21:19.762Z,100917.78
2017-08-18T20:23:47.402Z,100911.31
2017-08-18T20:26:15.035Z,100905.96
2017-08-18T20:28:42.814Z,100909.19
2017-08-18T20:31:10.426Z,100919.20
2017-08-18T20:33:38.067Z,100919.22
2017-08-18T20:36:05.716Z,100911.78
2017-08-18T20:38:33.311Z,100908.63
2017-08-18T20:41:00.968Z,100907.84
2017-08-18T20:43:28.576Z,100909.42
2017-08-18T20:45:56.332Z,100904.63
2017-08-18T20:48:23.963Z,100910.23
2017-08-18T20:50:51.627Z,100913.46
2017-08-18T20:53:19.234Z,100920.87
2017-08-18T20:55:47.161Z,100924.34
2017-08-18T20:58:14.764Z,100919.65
2017-08-18T21:00:42.377Z,100926.27
2017-08-18T21:03:10.043Z,100921.84
2017-08-18T21:05:37.661Z,100925.48
2017-08-18T21:08:05.298Z,100935.98
2017-08-18T21:10:32.939Z,100947.33
2017-08-18T21:13:00.575Z,100949.63
2017-08-18T21:15:28.189Z,100948.42
2017-08-18T21:17:55.820Z,100949.66
2017-08-18T21:20:23.411Z,100947.71
2017-08-18T21:22:51.203Z,100950.00
2017-08-18T21:25:18.851Z,100943.91
2017-08-18T21:27:46.458Z,100948.73
2017-08-18T21:30:14.209Z,100956.77
2017-08-18T21:32:41.815Z,100960.89
2017-08-18T21:35:09.478Z,100960.13
2017-08-18T21:37:37.077Z,100963.73
2017-08-18T21:40:04.721Z,100965.09
2017-08-18T21:42:32.333Z,100971.52
2017-08-18T21:45:00.054Z,100969.86
2017-08-18T21:47:27.726Z,100970.36
2017-08-18T21:49:55.512Z,100970.20
2017-08-18T21:52:23.123Z,100972.28
2017-08-18T21:54:50.843Z,100975.42
2017-08-18T21:57:18.479Z,100977.22
2017-08-18T21:59:46.088Z,100976.05
2017-08-18T22:02:13.705Z,100977.06
2017-08-18T22:04:41.309Z,100982.87
2017-08-18T22:07:08.960Z,100983.70
2017-08-18T22:09:36.571Z,100986.94
2017-08-18T22:12:04.215Z,100981.33
2017-08-18T22:14:31.795Z,100986.36
2017-08-18T22:16:59.445Z,100990.54
2017-08-18T22:19:27.042Z,100988.84
2017-08-18T22:21:54.718Z,100980.13
2017-08-18T22:24:22.315Z,100986.63
2017-08-18T22:26:49.970Z,100993.06
2017-08-18T22:29:17.591Z,100984.80
2017-08-18T22:31:45.226Z,100986.30
2017-08-18T22:34:12.814Z,100987.66
2017-08-18T22:36:40.450Z,100998.00
2017-08-18T22:39:08.049Z,100993.22
2017-08-18T22:41:35.667Z,100995.98
2017-08-18T22:44:03.278Z,101001.21
2017-08-18T22:46:30.995Z,100997.89
2017-08-18T22:48:58.618Z,100997.69
2017-08-18T22:51:26.286Z,100998.69
2017-08-18T22:53:53.866Z,100999.53
2017-08-18T22:56:21.527Z,101004.41
2017-08-18T22:58:49.127Z,100995.98
2017-08-18T23:01:16.784Z,100999.80
2017-08-18T23:03:44.382Z,101002.83
2017-08-18T23:06:12.006Z,101006.96
2017-08-18T23:08:39.590Z,101005.73
2017-08-18T23:11:07.263Z,101007.32
2017-08-18T23:13:34.884Z,101011.40
2017-08-18T23:16:02.525Z,101018.16
2017-08-18T23:18:30.128Z,101012.60
2017-08-18T23:20:57.722Z,101013.20
2017-08-18T23:23:25.438Z,101017.02
2017-08-18T23:25:53.044Z,101019.05
2017-08-18T23:28:20.770Z,101024.74
2017-08-18T23:30:48.387Z,101030.63
2017-08-18T23:33:16.054Z,101029.78
2017-08-18T23:35:43.670Z,101036.15
2017-08-18T23:38:11.306Z,101040.27
2017-08-18T23:40:38.915Z,101038.54
2017-08-18T23:43:06.554Z,101034.84
2017-08-18T23:45:34.149Z,101032.00
2017-08-18T23:48:01.798Z,101043.88
2017-08-18T23:50:29.401Z,101045.55
2017-08-18T23:52:57.015Z,101045.50
2017-08-18T23:55:24.642Z,101047.89
2017-08-18T23:57:52.283Z,101048.85
